Georgetown/Cheddi Jagan International

Airport
ICAO code: 
SYCJ
IATA Code: 
GEO
Summary
ICAO Region: 
CARSAM
Territory: 
Location: 
Timehri, Demerara-Mahaica
Serving: 
Georgetown
Elevation: 
95 ft
Coordinates: 
Aerial View: 
6° 29' 58.123" N, 58° 15' 17.306" W
Metar
Observation
SYCJ 192100Z 06008KT 9999 VCSH SCT016 BKN090 26/24 Q1012 NOSIG RMK VCSH-W
Station
Georgetown/Cheddi Jagan International Airport
Date/Time
2022-01-19 21:00:00
Wind direction
60°
Wind speed
08 kts
Lowest cloud amount
scattered clouds
Temperature
26°C
Dew point
24°C
Humidity
88%
QNH
1012 hPa
Weather condition
in vicinity: showers

Cheddi Jagan International Airport, formerly Timehri International Airport, is the national airport of Guyana. The airport is located on the right bank of the Demerara River in the city of Timehri, 41 km south of Guyana's capital, Georgetown.

Climatology

Tropical Rainforest climate (Köppen climate classification Af).

Runways

Designator Length Width Surface Rops
11/29 1525 45 ASP Yes/Yes
6/24 2270 45 ASP Yes/Yes
Airport map: 
Aerial View: 

Accidents and Serious Incidents at or in the vicinity of SYCJ

SKYbrary Partners:

Safety knowledge contributed by: